Time;durP1;ratioP1;P1;durP2;ratioP2;P2;SDS_P1;SDS_P2;PMS_P1;PMS_P2;Temp;Humidity;BMP_temperature;BMP_pressure;BME280_temperature;BME280_humidity;BME280_pressure;Samples;Min_cycle;Max_cycle;Signal;HPM_P1;HPM_P2
2022/06/30 00:01:19;;;;;;;10.93;6.50;;;;;;;;;;4836596;29;20061;-72
2022/06/30 00:03:45;;;;;;;7.13;6.10;;;;;;;;;;4839514;29;20045;-73
2022/06/30 00:06:10;;;;;;;7.80;6.38;;;;;;;;;;4837184;29;20042;-71
2022/06/30 00:08:36;;;;;;;6.38;5.70;;;;;;;;;;4838951;29;20061;-71
2022/06/30 00:11:06;;;;;;;6.90;5.85;;;;;;;;;;4835041;29;20048;-71
2022/06/30 00:13:33;;;;;;;6.95;6.22;;;;;;;;;;4834469;29;20041;-71
2022/06/30 00:15:59;;;;;;;8.50;6.32;;;;;;;;;;4834207;29;20047;-74
2022/06/30 00:18:24;;;;;;;8.38;5.95;;;;;;;;;;4840428;29;20030;-73
2022/06/30 00:20:49;;;;;;;6.60;5.97;;;;;;;;;;4833513;29;20053;-74
2022/06/30 00:23:15;;;;;;;7.43;6.05;;;;;;;;;;4834856;29;20454;-73
2022/06/30 00:25:40;;;;;;;8.23;6.85;;;;;;;;;;4835057;29;20053;-71
2022/06/30 00:28:06;;;;;;;7.13;6.40;;;;;;;;;;4838197;29;20036;-71
2022/06/30 00:30:31;;;;;;;7.10;6.43;;;;;;;;;;4839718;29;20030;-74
2022/06/30 00:32:56;;;;;;;6.95;6.25;;;;;;;;;;4839466;29;20404;-73
2022/06/30 00:35:22;;;;;;;10.43;6.70;;;;;;;;;;4844568;29;20075;-72
2022/06/30 00:37:47;;;;;;;7.45;6.60;;;;;;;;;;4846307;29;20080;-74
2022/06/30 00:40:12;;;;;;;7.60;6.68;;;;;;;;;;4846100;29;20042;-72
2022/06/30 00:42:38;;;;;;;10.55;6.70;;;;;;;;;;4845149;29;20025;-73
2022/06/30 00:45:04;;;;;;;7.88;6.53;;;;;;;;;;4841580;29;20102;-74
2022/06/30 00:47:29;;;;;;;7.13;6.43;;;;;;;;;;4841218;29;20407;-73
2022/06/30 00:49:54;;;;;;;8.52;6.95;;;;;;;;;;4844231;29;20380;-73
2022/06/30 00:52:22;;;;;;;7.57;6.80;;;;;;;;;;4838228;29;20061;-72
2022/06/30 00:54:50;;;;;;;8.50;7.15;;;;;;;;;;4846868;29;20057;-74
2022/06/30 00:57:18;;;;;;;8.15;7.28;;;;;;;;;;4841543;29;20045;-73
2022/06/30 00:59:45;;;;;;;9.50;7.50;;;;;;;;;;4838534;29;20042;-74
2022/06/30 01:02:12;;;;;;;8.50;7.47;;;;;;;;;;4836235;29;20042;-73
2022/06/30 01:04:39;;;;;;;7.55;6.70;;;;;;;;;;4839743;29;20046;-72
2022/06/30 01:07:05;;;;;;;9.70;6.75;;;;;;;;;;4833704;29;20518;-73
2022/06/30 01:15:01;;;;;;;9.77;7.38;;;;;;;;;;4835652;29;20088;-73
2022/06/30 01:17:26;;;;;;;9.55;7.25;;;;;;;;;;4839076;29;20034;-73
2022/06/30 01:19:56;;;;;;;10.85;7.25;;;;;;;;;;4840211;29;20144;-74
2022/06/30 01:22:21;;;;;;;8.60;6.93;;;;;;;;;;4838799;29;20042;-73
2022/06/30 01:24:47;;;;;;;9.23;7.03;;;;;;;;;;4837774;29;20098;-73
2022/06/30 01:27:13;;;;;;;7.72;6.70;;;;;;;;;;4821633;29;20038;-73
2022/06/30 01:29:38;;;;;;;8.68;6.93;;;;;;;;;;4839333;29;20133;-74
2022/06/30 01:32:04;;;;;;;7.57;6.60;;;;;;;;;;4838030;29;20049;-73
2022/06/30 01:34:29;;;;;;;7.60;6.80;;;;;;;;;;4844864;29;20570;-74
2022/06/30 01:36:55;;;;;;;8.98;6.97;;;;;;;;;;4841543;29;20129;-75
2022/06/30 01:39:20;;;;;;;9.13;7.00;;;;;;;;;;4843257;29;20034;-74
2022/06/30 01:41:45;;;;;;;8.77;6.72;;;;;;;;;;4838210;29;20125;-74
2022/06/30 01:44:11;;;;;;;7.40;6.65;;;;;;;;;;4840754;29;20067;-73
2022/06/30 01:46:44;;;;;;;8.45;6.53;;;;;;;;;;4839793;29;20054;-73
2022/06/30 01:49:09;;;;;;;7.40;6.57;;;;;;;;;;4840859;29;20041;-74
2022/06/30 01:51:35;;;;;;;7.78;6.07;;;;;;;;;;4841686;29;20034;-73
2022/06/30 01:54:00;;;;;;;8.10;6.43;;;;;;;;;;4835740;29;20046;-73
2022/06/30 01:56:27;;;;;;;7.65;6.90;;;;;;;;;;4841522;29;20137;-73
2022/06/30 01:58:52;;;;;;;9.20;6.93;;;;;;;;;;4838048;29;20042;-73
2022/06/30 02:01:18;;;;;;;11.25;7.00;;;;;;;;;;4834619;29;20053;-73
2022/06/30 02:03:44;;;;;;;8.07;6.70;;;;;;;;;;4837559;29;20042;-72
2022/06/30 02:06:09;;;;;;;7.28;6.50;;;;;;;;;;4835325;29;20077;-73
2022/06/30 02:08:34;;;;;;;7.10;6.47;;;;;;;;;;4837741;29;20137;-73
2022/06/30 02:11:00;;;;;;;8.30;6.53;;;;;;;;;;4837011;29;20559;-74
2022/06/30 02:13:25;;;;;;;10.15;6.55;;;;;;;;;;4838766;29;20038;-74
2022/06/30 02:15:50;;;;;;;8.82;6.90;;;;;;;;;;4836562;29;20026;-74
2022/06/30 02:18:16;;;;;;;7.50;6.80;;;;;;;;;;4837524;29;20495;-73
2022/06/30 02:20:41;;;;;;;11.80;7.10;;;;;;;;;;4837809;29;20049;-74
2022/06/30 02:23:07;;;;;;;11.15;7.68;;;;;;;;;;4840624;29;20045;-73
2022/06/30 02:25:33;;;;;;;8.40;7.40;;;;;;;;;;4840937;29;20041;-75
2022/06/30 02:27:59;;;;;;;7.05;6.35;;;;;;;;;;4833867;29;20042;-75
2022/06/30 02:30:24;;;;;;;8.50;6.97;;;;;;;;;;4841347;29;20113;-75
2022/06/30 02:32:51;;;;;;;9.48;6.80;;;;;;;;;;4841044;29;20038;-74
2022/06/30 02:35:17;;;;;;;7.70;6.50;;;;;;;;;;4841821;29;20071;-76
2022/06/30 02:37:42;;;;;;;10.27;6.85;;;;;;;;;;4842532;29;20110;-77
2022/06/30 02:40:08;;;;;;;9.40;6.95;;;;;;;;;;4842316;29;20038;-75
2022/06/30 02:42:34;;;;;;;10.25;6.90;;;;;;;;;;4840772;29;20029;-76
2022/06/30 02:44:59;;;;;;;7.85;6.78;;;;;;;;;;4841301;29;20107;-75
2022/06/30 02:47:36;;;;;;;9.05;6.90;;;;;;;;;;4841020;29;20041;-76
2022/06/30 02:50:04;;;;;;;9.27;7.03;;;;;;;;;;4840658;29;20045;-77
2022/06/30 02:52:31;;;;;;;8.23;6.85;;;;;;;;;;4841996;29;20130;-76
2022/06/30 02:54:57;;;;;;;9.20;6.93;;;;;;;;;;4837794;29;20380;-75
2022/06/30 02:57:22;;;;;;;8.55;6.53;;;;;;;;;;4837863;29;20033;-75
2022/06/30 02:59:48;;;;;;;9.85;7.32;;;;;;;;;;4836830;29;20046;-76
2022/06/30 03:02:13;;;;;;;7.60;6.90;;;;;;;;;;4836464;29;20082;-75
2022/06/30 03:04:39;;;;;;;8.00;7.22;;;;;;;;;;4837596;29;20133;-75
2022/06/30 03:07:04;;;;;;;8.52;6.85;;;;;;;;;;4838456;29;20533;-76
2022/06/30 03:09:29;;;;;;;8.43;7.50;;;;;;;;;;4838429;29;20154;-77
2022/06/30 03:11:55;;;;;;;9.35;6.93;;;;;;;;;;4838433;29;20566;-76
2022/06/30 03:14:20;;;;;;;7.45;6.75;;;;;;;;;;4836888;29;20455;-76
2022/06/30 03:16:46;;;;;;;9.65;6.82;;;;;;;;;;4837891;29;20600;-75
2022/06/30 03:19:11;;;;;;;9.88;7.22;;;;;;;;;;4834778;29;20029;-76
2022/06/30 03:21:37;;;;;;;9.88;7.32;;;;;;;;;;4839140;29;20042;-76
2022/06/30 03:24:02;;;;;;;8.95;6.72;;;;;;;;;;4835898;29;20050;-77
2022/06/30 03:26:27;;;;;;;8.13;7.32;;;;;;;;;;4837615;29;20053;-75
2022/06/30 03:28:53;;;;;;;8.50;6.93;;;;;;;;;;4838236;29;20061;-75
2022/06/30 03:31:18;;;;;;;10.27;6.95;;;;;;;;;;4838547;29;20046;-75
2022/06/30 03:33:44;;;;;;;10.60;7.25;;;;;;;;;;4840615;29;20053;-75
2022/06/30 03:36:09;;;;;;;10.20;7.30;;;;;;;;;;4835248;29;20042;-76
2022/06/30 03:38:34;;;;;;;8.68;7.00;;;;;;;;;;4837684;29;20034;-76
2022/06/30 03:41:00;;;;;;;10.45;7.25;;;;;;;;;;4832681;29;20046;-76
2022/06/30 03:43:25;;;;;;;7.78;6.50;;;;;;;;;;4823711;29;20507;-76
2022/06/30 03:45:51;;;;;;;10.75;7.30;;;;;;;;;;4823811;29;20034;-76
2022/06/30 03:48:16;;;;;;;10.20;7.00;;;;;;;;;;4838025;29;20403;-77
2022/06/30 03:50:42;;;;;;;8.90;7.03;;;;;;;;;;4840195;29;20046;-76
2022/06/30 03:53:07;;;;;;;9.15;6.63;;;;;;;;;;4823619;29;20042;-75
2022/06/30 03:55:33;;;;;;;8.98;6.93;;;;;;;;;;4841059;29;20465;-75
2022/06/30 03:57:59;;;;;;;8.75;6.78;;;;;;;;;;4838089;29;20036;-75
2022/06/30 04:00:25;;;;;;;8.63;6.82;;;;;;;;;;4836565;29;20037;-76
2022/06/30 04:02:51;;;;;;;8.85;6.82;;;;;;;;;;4837072;29;20101;-75
2022/06/30 04:05:16;;;;;;;7.38;6.30;;;;;;;;;;4838982;29;20415;-77
2022/06/30 04:07:43;;;;;;;6.68;5.90;;;;;;;;;;4836890;29;20056;-76
2022/06/30 04:10:11;;;;;;;7.55;6.38;;;;;;;;;;4836044;29;20395;-75
2022/06/30 04:12:36;;;;;;;10.38;7.30;;;;;;;;;;4839169;29;20546;-75
2022/06/30 04:15:02;;;;;;;8.60;6.35;;;;;;;;;;4836014;29;20188;-75
2022/06/30 04:17:28;;;;;;;7.95;6.88;;;;;;;;;;4836488;29;20038;-76
2022/06/30 04:19:53;;;;;;;8.70;6.78;;;;;;;;;;4836326;29;20455;-75
2022/06/30 04:22:18;;;;;;;7.78;7.07;;;;;;;;;;4833999;29;20038;-76
2022/06/30 04:24:44;;;;;;;8.35;6.88;;;;;;;;;;4839725;29;20033;-75
2022/06/30 04:27:09;;;;;;;7.78;6.43;;;;;;;;;;4836164;29;20034;-76
2022/06/30 04:29:35;;;;;;;9.98;7.88;;;;;;;;;;4838303;29;20400;-77
2022/06/30 04:34:43;;;;;;;8.40;6.95;;;;;;;;;;4836246;29;20466;-75
2022/06/30 04:37:09;;;;;;;10.85;7.15;;;;;;;;;;4838994;29;20136;-77
2022/06/30 04:39:34;;;;;;;9.73;7.15;;;;;;;;;;4839476;29;20121;-76
2022/06/30 04:42:00;;;;;;;8.00;7.20;;;;;;;;;;4841791;29;20037;-76
2022/06/30 04:44:25;;;;;;;8.68;6.68;;;;;;;;;;4839695;29;20042;-76
2022/06/30 04:46:51;;;;;;;7.25;6.55;;;;;;;;;;4841752;29;20043;-76
2022/06/30 04:49:16;;;;;;;9.82;6.75;;;;;;;;;;4839193;29;20046;-75
2022/06/30 04:51:41;;;;;;;10.20;7.40;;;;;;;;;;4839971;29;20110;-76
2022/06/30 04:54:07;;;;;;;13.40;7.30;;;;;;;;;;4840299;29;20085;-75
2022/06/30 04:56:33;;;;;;;10.68;7.65;;;;;;;;;;4840656;29;20038;-75
2022/06/30 04:58:58;;;;;;;9.48;7.28;;;;;;;;;;4840486;29;20075;-76
2022/06/30 05:01:24;;;;;;;10.65;7.25;;;;;;;;;;4840126;29;20057;-76
2022/06/30 05:03:49;;;;;;;8.50;7.15;;;;;;;;;;4838877;29;20046;-77
2022/06/30 05:06:15;;;;;;;13.25;6.90;;;;;;;;;;4838527;29;20487;-76
2022/06/30 05:08:40;;;;;;;7.55;6.50;;;;;;;;;;4840181;29;20060;-75
2022/06/30 05:11:06;;;;;;;9.00;7.78;;;;;;;;;;4841315;29;20041;-76
2022/06/30 05:13:31;;;;;;;8.57;7.20;;;;;;;;;;4842480;29;20399;-76
2022/06/30 05:15:57;;;;;;;9.70;6.75;;;;;;;;;;4845828;29;20133;-76
2022/06/30 05:18:26;;;;;;;9.20;7.00;;;;;;;;;;4841267;29;20050;-74
2022/06/30 05:20:52;;;;;;;8.10;6.75;;;;;;;;;;4842732;29;20050;-74
2022/06/30 05:23:17;;;;;;;10.75;7.22;;;;;;;;;;4842093;29;20045;-76
2022/06/30 05:28:26;;;;;;;8.68;7.80;;;;;;;;;;4835602;29;20414;-76
2022/06/30 05:30:52;;;;;;;9.27;7.43;;;;;;;;;;4842882;29;20034;-77
2022/06/30 05:33:21;;;;;;;10.80;7.47;;;;;;;;;;4840830;29;20065;-76
2022/06/30 05:35:52;;;;;;;9.30;6.82;;;;;;;;;;4842219;29;20397;-77
2022/06/30 05:38:18;;;;;;;10.68;7.68;;;;;;;;;;4841847;29;20411;-76
2022/06/30 05:40:46;;;;;;;8.27;7.38;;;;;;;;;;4842021;29;20049;-75
2022/06/30 05:43:16;;;;;;;10.68;7.13;;;;;;;;;;4839106;29;20094;-76
2022/06/30 05:45:42;;;;;;;11.15;8.05;;;;;;;;;;4840400;29;20314;-77
2022/06/30 05:48:08;;;;;;;12.52;7.78;;;;;;;;;;4825763;29;20448;-74
2022/06/30 05:50:33;;;;;;;11.15;7.55;;;;;;;;;;4838849;29;20129;-77
2022/06/30 05:52:59;;;;;;;12.68;7.45;;;;;;;;;;4840425;29;20038;-75
2022/06/30 05:55:24;;;;;;;9.68;6.88;;;;;;;;;;4840691;29;20069;-75
2022/06/30 05:57:57;;;;;;;12.60;7.70;;;;;;;;;;4843404;29;20112;-76
2022/06/30 06:00:25;;;;;;;9.73;7.65;;;;;;;;;;4840407;29;20076;-76
2022/06/30 06:02:51;;;;;;;13.98;7.60;;;;;;;;;;4840525;29;20073;-76
2022/06/30 06:05:16;;;;;;;8.65;7.00;;;;;;;;;;4839538;29;20065;-75
2022/06/30 06:07:43;;;;;;;11.73;7.07;;;;;;;;;;4842433;29;20069;-76
2022/06/30 06:10:09;;;;;;;13.95;7.72;;;;;;;;;;4838976;29;20133;-74
2022/06/30 06:12:35;;;;;;;18.17;8.00;;;;;;;;;;4837194;29;20475;-75
2022/06/30 06:15:01;;;;;;;10.13;7.60;;;;;;;;;;4841706;29;20137;-76
2022/06/30 06:17:26;;;;;;;15.35;7.72;;;;;;;;;;4840856;29;20503;-73
2022/06/30 06:19:51;;;;;;;10.90;6.90;;;;;;;;;;4838963;29;20106;-75
2022/06/30 06:22:17;;;;;;;11.43;6.93;;;;;;;;;;4839760;29;20102;-76
2022/06/30 06:24:42;;;;;;;11.05;7.65;;;;;;;;;;4838052;29;20402;-77
2022/06/30 06:27:08;;;;;;;10.50;7.45;;;;;;;;;;4840126;29;20232;-74
2022/06/30 06:29:33;;;;;;;9.70;6.72;;;;;;;;;;4840210;29;20073;-77
2022/06/30 06:31:59;;;;;;;12.18;7.55;;;;;;;;;;4839049;29;20059;-77
2022/06/30 06:34:24;;;;;;;12.93;6.90;;;;;;;;;;4838133;29;20073;-77
2022/06/30 06:36:49;;;;;;;10.63;6.57;;;;;;;;;;4843858;29;20057;-77
2022/06/30 06:39:15;;;;;;;16.50;7.60;;;;;;;;;;4842947;29;20506;-77
2022/06/30 06:41:40;;;;;;;18.58;8.05;;;;;;;;;;4844066;29;20109;-78
2022/06/30 06:44:06;;;;;;;9.05;6.50;;;;;;;;;;4843774;29;20045;-79
2022/06/30 06:46:32;;;;;;;10.80;7.35;;;;;;;;;;4841685;29;20107;-78
2022/06/30 06:49:02;;;;;;;10.25;7.53;;;;;;;;;;4839835;29;21099;-77
2022/06/30 06:51:29;;;;;;;8.45;7.10;;;;;;;;;;4843312;29;20110;-77
2022/06/30 06:53:55;;;;;;;10.60;6.85;;;;;;;;;;4841894;29;20057;-78
2022/06/30 06:56:20;;;;;;;11.38;7.13;;;;;;;;;;4841814;29;20715;-76
2022/06/30 06:58:46;;;;;;;9.77;6.95;;;;;;;;;;4837834;29;20046;-75
2022/06/30 07:01:11;;;;;;;11.20;8.18;;;;;;;;;;4838475;29;20042;-78
2022/06/30 07:03:38;;;;;;;10.65;6.95;;;;;;;;;;4840135;29;20045;-78
2022/06/30 07:06:04;;;;;;;16.98;6.60;;;;;;;;;;4825746;29;20550;-77
2022/06/30 07:08:30;;;;;;;12.32;7.18;;;;;;;;;;4839243;29;20107;-79
2022/06/30 07:10:56;;;;;;;12.07;6.95;;;;;;;;;;4838766;29;20038;-77
2022/06/30 07:13:23;;;;;;;12.57;6.82;;;;;;;;;;4838128;29;20053;-75
2022/06/30 07:15:48;;;;;;;8.00;6.95;;;;;;;;;;4839187;29;20042;-78
2022/06/30 07:18:13;;;;;;;9.02;6.88;;;;;;;;;;4837829;29;20060;-77
2022/06/30 07:20:39;;;;;;;11.98;7.50;;;;;;;;;;4839118;29;20056;-77
2022/06/30 07:23:04;;;;;;;14.95;7.47;;;;;;;;;;4837104;29;20291;-75
2022/06/30 07:25:30;;;;;;;10.27;6.95;;;;;;;;;;4839462;29;20396;-77
2022/06/30 07:27:55;;;;;;;15.75;6.90;;;;;;;;;;4822974;29;20045;-77
2022/06/30 07:30:21;;;;;;;19.30;7.60;;;;;;;;;;4839400;29;20041;-76
2022/06/30 07:32:46;;;;;;;8.90;7.07;;;;;;;;;;4835981;29;20052;-76
2022/06/30 07:35:11;;;;;;;12.52;6.82;;;;;;;;;;4838348;29;20049;-77
2022/06/30 07:37:40;;;;;;;9.77;7.05;;;;;;;;;;4838483;29;20132;-76
2022/06/30 07:40:07;;;;;;;8.88;7.30;;;;;;;;;;4839815;29;20033;-75
2022/06/30 07:42:33;;;;;;;9.02;7.40;;;;;;;;;;4840565;29;20100;-79
2022/06/30 07:44:58;;;;;;;13.10;7.35;;;;;;;;;;4824960;29;20482;-78
2022/06/30 07:47:24;;;;;;;15.57;7.03;;;;;;;;;;4836677;29;20113;-78
2022/06/30 07:49:49;;;;;;;16.08;7.78;;;;;;;;;;4837256;29;20069;-78
2022/06/30 07:52:15;;;;;;;10.00;6.80;;;;;;;;;;4819557;29;20132;-78
2022/06/30 07:54:40;;;;;;;9.48;7.00;;;;;;;;;;4837704;29;20511;-78
2022/06/30 07:57:06;;;;;;;10.50;6.20;;;;;;;;;;4838724;29;20111;-77
2022/06/30 07:59:31;;;;;;;13.00;7.22;;;;;;;;;;4839300;29;20135;-76
2022/06/30 08:01:57;;;;;;;12.30;7.20;;;;;;;;;;4839591;29;20042;-78
2022/06/30 08:04:22;;;;;;;8.63;6.90;;;;;;;;;;4838196;29;20069;-77
2022/06/30 08:06:48;;;;;;;12.40;6.78;;;;;;;;;;4839993;29;20483;-77
2022/06/30 08:09:13;;;;;;;14.38;7.78;;;;;;;;;;4837444;29;20045;-77
2022/06/30 08:11:38;;;;;;;12.73;7.88;;;;;;;;;;4839872;29;20056;-76
2022/06/30 08:14:04;;;;;;;12.40;7.60;;;;;;;;;;4836494;29;20034;-77
2022/06/30 08:16:30;;;;;;;13.85;7.55;;;;;;;;;;4838027;29;20477;-75
2022/06/30 08:18:55;;;;;;;10.73;7.28;;;;;;;;;;4840592;29;20101;-77
2022/06/30 08:21:21;;;;;;;14.60;7.20;;;;;;;;;;4835598;29;20030;-78
2022/06/30 08:23:46;;;;;;;11.80;7.85;;;;;;;;;;4835428;29;20049;-77
2022/06/30 08:26:12;;;;;;;9.75;7.60;;;;;;;;;;4835737;29;20042;-77
2022/06/30 08:28:37;;;;;;;24.98;6.90;;;;;;;;;;4836675;29;20042;-76
2022/06/30 08:31:03;;;;;;;16.88;7.90;;;;;;;;;;4837224;29;20126;-76
2022/06/30 08:33:29;;;;;;;12.95;6.88;;;;;;;;;;4840609;29;20041;-77
2022/06/30 08:35:54;;;;;;;10.45;6.45;;;;;;;;;;4839327;29;20499;-73
2022/06/30 08:38:21;;;;;;;11.70;6.63;;;;;;;;;;4839504;29;20045;-78
2022/06/30 08:43:32;;;;;;;14.32;7.35;;;;;;;;;;4839943;29;20044;-77
2022/06/30 08:45:59;;;;;;;13.30;7.30;;;;;;;;;;4835050;29;20045;-77
2022/06/30 08:48:25;;;;;;;15.68;7.32;;;;;;;;;;4838417;29;20102;-77
2022/06/30 08:51:14;;;;;;;9.60;6.82;;;;;;;;;;4840497;29;20046;-78
2022/06/30 08:53:45;;;;;;;11.05;7.35;;;;;;;;;;4838244;29;20041;-77
2022/06/30 08:56:12;;;;;;;7.50;6.00;;;;;;;;;;4838719;29;20044;-77
2022/06/30 08:58:39;;;;;;;12.90;6.50;;;;;;;;;;4837252;29;20094;-76
2022/06/30 09:01:05;;;;;;;8.95;5.47;;;;;;;;;;4838061;29;20029;-75
2022/06/30 09:03:31;;;;;;;8.60;5.85;;;;;;;;;;4836711;29;20471;-77
2022/06/30 09:05:57;;;;;;;9.45;5.85;;;;;;;;;;4834684;29;20095;-77
2022/06/30 09:08:22;;;;;;;10.45;6.43;;;;;;;;;;4831200;29;20452;-77
2022/06/30 09:10:50;;;;;;;14.13;5.68;;;;;;;;;;4836029;29;20042;-78
2022/06/30 09:13:16;;;;;;;8.95;5.00;;;;;;;;;;4836228;29;20086;-73
2022/06/30 09:15:41;;;;;;;8.45;5.63;;;;;;;;;;4836272;29;20445;-77
2022/06/30 09:18:07;;;;;;;11.38;5.45;;;;;;;;;;4835279;29;20030;-77
2022/06/30 09:20:38;;;;;;;10.63;5.40;;;;;;;;;;4835105;29;20034;-76
2022/06/30 09:23:25;;;;;;;10.93;5.28;;;;;;;;;;4840072;29;20037;-76
2022/06/30 09:25:55;;;;;;;5.90;4.88;;;;;;;;;;4839291;29;20446;-77
2022/06/30 09:28:44;;;;;;;8.27;5.35;;;;;;;;;;4838988;29;20062;-77
2022/06/30 09:31:11;;;;;;;7.65;4.95;;;;;;;;;;4837252;29;20037;-74
2022/06/30 09:33:39;;;;;;;7.30;4.78;;;;;;;;;;4836496;29;20480;-76
2022/06/30 09:36:22;;;;;;;8.07;4.32;;;;;;;;;;4839069;29;20045;-74
2022/06/30 09:39:06;;;;;;;6.13;4.03;;;;;;;;;;4837278;29;20121;-77
2022/06/30 09:41:35;;;;;;;6.15;4.07;;;;;;;;;;4836404;29;20074;-77
2022/06/30 09:44:06;;;;;;;4.95;3.28;;;;;;;;;;4837309;29;20074;-77
2022/06/30 09:46:32;;;;;;;6.30;3.20;;;;;;;;;;4836493;29;20088;-77
2022/06/30 09:48:57;;;;;;;4.10;2.55;;;;;;;;;;4834352;29;20523;-77
2022/06/30 09:51:23;;;;;;;5.75;2.63;;;;;;;;;;4834977;29;20038;-77
2022/06/30 09:54:05;;;;;;;4.55;3.08;;;;;;;;;;4835276;29;20149;-76
2022/06/30 09:56:31;;;;;;;4.13;2.50;;;;;;;;;;4835230;29;20403;-77
2022/06/30 09:58:57;;;;;;;11.45;2.53;;;;;;;;;;4824519;29;20042;-78
2022/06/30 10:01:22;;;;;;;4.68;2.40;;;;;;;;;;4839261;29;20050;-78
2022/06/30 10:03:59;;;;;;;6.47;2.33;;;;;;;;;;4839855;29;20077;-78
2022/06/30 10:06:25;;;;;;;4.57;2.20;;;;;;;;;;4824355;29;20964;-77
2022/06/30 10:08:53;;;;;;;4.32;2.22;;;;;;;;;;4840228;29;20054;-77
2022/06/30 10:11:19;;;;;;;4.95;2.10;;;;;;;;;;4839334;29;20046;-73
2022/06/30 10:13:46;;;;;;;7.10;2.15;;;;;;;;;;4839589;29;20169;-78
2022/06/30 10:16:13;;;;;;;3.53;1.75;;;;;;;;;;4838425;29;20034;-78
2022/06/30 10:18:39;;;;;;;3.75;1.60;;;;;;;;;;4822158;29;20125;-76
2022/06/30 10:21:05;;;;;;;5.35;1.70;;;;;;;;;;4836495;29;20109;-75
2022/06/30 10:23:32;;;;;;;1.85;1.42;;;;;;;;;;4839433;29;20129;-76
2022/06/30 10:25:58;;;;;;;1.90;1.20;;;;;;;;;;4840860;29;20099;-77
2022/06/30 10:28:27;;;;;;;4.93;1.63;;;;;;;;;;4837790;29;20168;-75
2022/06/30 10:31:15;;;;;;;3.30;1.80;;;;;;;;;;4822842;29;20034;-77
2022/06/30 10:33:59;;;;;;;5.28;1.88;;;;;;;;;;4839175;29;20118;-77
2022/06/30 10:36:30;;;;;;;2.50;1.90;;;;;;;;;;4842298;29;20053;-76
2022/06/30 10:39:18;;;;;;;2.75;1.80;;;;;;;;;;4841816;29;20114;-75
2022/06/30 10:41:45;;;;;;;3.75;2.13;;;;;;;;;;4837564;29;20042;-77
2022/06/30 10:44:21;;;;;;;4.05;2.53;;;;;;;;;;4840848;29;20102;-77
2022/06/30 10:46:55;;;;;;;5.95;3.15;;;;;;;;;;4840368;29;20046;-77
2022/06/30 10:49:22;;;;;;;4.88;2.60;;;;;;;;;;4839274;29;20095;-76
2022/06/30 10:51:48;;;;;;;5.10;2.30;;;;;;;;;;4838689;29;20490;-77
2022/06/30 10:54:33;;;;;;;5.10;2.42;;;;;;;;;;4839130;29;20038;-76
2022/06/30 10:57:01;;;;;;;6.63;2.78;;;;;;;;;;4839071;29;20121;-76
2022/06/30 10:59:36;;;;;;;6.90;2.70;;;;;;;;;;4838296;29;20109;-76
2022/06/30 11:02:10;;;;;;;3.42;2.13;;;;;;;;;;4837416;29;20042;-76
2022/06/30 11:04:42;;;;;;;5.00;2.30;;;;;;;;;;4833658;29;20045;-76
2022/06/30 11:07:11;;;;;;;3.92;2.40;;;;;;;;;;4839967;29;20026;-75
2022/06/30 11:09:49;;;;;;;5.43;2.10;;;;;;;;;;4837509;29;20038;-76
2022/06/30 11:12:17;;;;;;;3.28;2.00;;;;;;;;;;4838295;29;20037;-75
2022/06/30 11:14:48;;;;;;;4.55;2.20;;;;;;;;;;4834949;29;20049;-76
2022/06/30 11:17:18;;;;;;;3.42;2.10;;;;;;;;;;4832018;29;20034;-74
2022/06/30 11:19:46;;;;;;;5.25;2.20;;;;;;;;;;4838667;29;20038;-76
2022/06/30 11:22:16;;;;;;;4.57;2.15;;;;;;;;;;4833084;29;21364;-73
2022/06/30 11:24:45;;;;;;;3.78;2.30;;;;;;;;;;4835395;29;20037;-73
2022/06/30 11:27:18;;;;;;;3.42;2.20;;;;;;;;;;4836497;29;20041;-74
2022/06/30 11:29:47;;;;;;;3.65;2.22;;;;;;;;;;4837320;29;20046;-74
2022/06/30 11:32:13;;;;;;;5.57;2.40;;;;;;;;;;4832047;29;20544;-75
2022/06/30 11:34:40;;;;;;;7.20;2.38;;;;;;;;;;4836304;29;20076;-73
2022/06/30 11:37:09;;;;;;;3.75;2.03;;;;;;;;;;4835783;29;20025;-75
2022/06/30 11:39:34;;;;;;;4.30;2.00;;;;;;;;;;4834174;29;20174;-74
2022/06/30 11:42:06;;;;;;;3.90;2.50;;;;;;;;;;4833267;29;20575;-74
2022/06/30 11:44:33;;;;;;;3.05;2.13;;;;;;;;;;4838196;29;20038;-77
2022/06/30 11:47:02;;;;;;;3.20;2.10;;;;;;;;;;4836349;29;20189;-73
2022/06/30 11:49:41;;;;;;;3.65;2.20;;;;;;;;;;4833156;29;20804;-75
2022/06/30 11:52:16;;;;;;;3.97;2.00;;;;;;;;;;4834138;29;20038;-76
2022/06/30 11:54:53;;;;;;;4.68;2.22;;;;;;;;;;4834102;29;20105;-75
2022/06/30 11:57:20;;;;;;;4.43;2.58;;;;;;;;;;4833671;29;20060;-75
2022/06/30 11:59:48;;;;;;;2.80;2.20;;;;;;;;;;4836933;29;20038;-74
2022/06/30 12:02:14;;;;;;;3.95;2.10;;;;;;;;;;4837546;29;20054;-76
2022/06/30 12:04:43;;;;;;;3.00;2.20;;;;;;;;;;4833998;29;20065;-77
2022/06/30 12:07:12;;;;;;;3.38;2.50;;;;;;;;;;4842949;29;20030;-75
2022/06/30 12:09:37;;;;;;;5.20;2.60;;;;;;;;;;4839182;29;20039;-74
2022/06/30 12:12:03;;;;;;;2.50;2.22;;;;;;;;;;4840674;29;20183;-74
2022/06/30 12:14:34;;;;;;;2.70;2.10;;;;;;;;;;4840242;29;20038;-74
2022/06/30 12:17:00;;;;;;;4.55;2.22;;;;;;;;;;4841322;29;20049;-75
2022/06/30 12:19:25;;;;;;;4.53;2.40;;;;;;;;;;4833243;29;20248;-74
2022/06/30 12:21:54;;;;;;;6.03;2.28;;;;;;;;;;4832471;29;20030;-75
2022/06/30 12:24:22;;;;;;;4.88;2.47;;;;;;;;;;4840946;29;20081;-75
2022/06/30 12:26:55;;;;;;;6.28;2.22;;;;;;;;;;4833726;29;20515;-75
2022/06/30 12:29:23;;;;;;;4.15;2.20;;;;;;;;;;4833632;29;20045;-75
2022/06/30 12:32:03;;;;;;;3.33;2.28;;;;;;;;;;4840938;29;20148;-76
2022/06/30 12:34:30;;;;;;;3.08;2.50;;;;;;;;;;4836198;29;20033;-75
2022/06/30 12:36:58;;;;;;;5.13;2.55;;;;;;;;;;4841412;29;20026;-76
2022/06/30 12:39:24;;;;;;;2.60;2.33;;;;;;;;;;4836236;29;20038;-75
2022/06/30 12:42:00;;;;;;;3.30;2.17;;;;;;;;;;4838170;29;20117;-74
2022/06/30 12:44:32;;;;;;;4.22;2.47;;;;;;;;;;4836011;29;20030;-74
2022/06/30 12:47:09;;;;;;;6.13;2.30;;;;;;;;;;4836564;29;20106;-75
2022/06/30 12:49:36;;;;;;;5.57;2.67;;;;;;;;;;4841815;29;20098;-74
2022/06/30 12:52:13;;;;;;;2.72;2.22;;;;;;;;;;4834411;29;20034;-75
2022/06/30 12:54:49;;;;;;;3.47;2.25;;;;;;;;;;4838738;29;20042;-74
2022/06/30 12:57:15;;;;;;;2.75;1.80;;;;;;;;;;4818859;29;20471;-74
2022/06/30 12:59:51;;;;;;;7.63;2.25;;;;;;;;;;4837327;29;20065;-74
2022/06/30 13:02:17;;;;;;;4.57;2.20;;;;;;;;;;4834513;29;20537;-74
2022/06/30 13:04:50;;;;;;;5.30;2.58;;;;;;;;;;4829622;29;20038;-76
2022/06/30 13:07:16;;;;;;;2.83;2.10;;;;;;;;;;4831799;29;20036;-74
2022/06/30 13:09:43;;;;;;;5.05;2.30;;;;;;;;;;4822345;29;20037;-76
2022/06/30 13:12:09;;;;;;;2.75;2.10;;;;;;;;;;4831725;29;20041;-75
2022/06/30 13:14:36;;;;;;;5.45;2.30;;;;;;;;;;4833924;29;20038;-76
2022/06/30 13:17:02;;;;;;;5.88;2.38;;;;;;;;;;4832678;29;20042;-77
2022/06/30 13:19:29;;;;;;;2.28;2.08;;;;;;;;;;4818783;29;20057;-74
2022/06/30 13:21:54;;;;;;;4.60;2.10;;;;;;;;;;4833989;29;20501;-75
2022/06/30 13:24:23;;;;;;;3.05;2.05;;;;;;;;;;4832456;29;20499;-76
2022/06/30 13:26:50;;;;;;;4.35;2.13;;;;;;;;;;4837401;29;20464;-75
2022/06/30 13:29:16;;;;;;;3.97;2.20;;;;;;;;;;4829275;29;20403;-74
2022/06/30 13:31:42;;;;;;;4.30;1.98;;;;;;;;;;4833582;29;20045;-74
2022/06/30 13:34:11;;;;;;;3.95;2.10;;;;;;;;;;4836458;29;20042;-73
2022/06/30 13:36:37;;;;;;;3.03;1.98;;;;;;;;;;4838162;29;20040;-75
2022/06/30 13:39:04;;;;;;;3.05;1.85;;;;;;;;;;4838458;29;20034;-76
2022/06/30 13:41:30;;;;;;;3.95;1.80;;;;;;;;;;4836582;29;20452;-73
2022/06/30 13:43:56;;;;;;;1.98;1.67;;;;;;;;;;4837070;29;20038;-75
2022/06/30 13:46:21;;;;;;;5.53;2.00;;;;;;;;;;4835999;29;20042;-74
2022/06/30 13:48:47;;;;;;;2.75;1.95;;;;;;;;;;4835140;29;20526;-75
2022/06/30 13:51:13;;;;;;;3.33;1.65;;;;;;;;;;4833210;29;20066;-75
2022/06/30 13:53:40;;;;;;;5.45;2.00;;;;;;;;;;4838116;29;20046;-72
2022/06/30 13:56:05;;;;;;;2.85;2.05;;;;;;;;;;4838629;29;20038;-74
2022/06/30 13:58:30;;;;;;;5.47;1.70;;;;;;;;;;4819689;29;20098;-75
2022/06/30 14:00:57;;;;;;;6.70;2.05;;;;;;;;;;4837506;29;20045;-74
2022/06/30 14:03:22;;;;;;;2.17;1.60;;;;;;;;;;4834068;29;20109;-74
2022/06/30 14:05:48;;;;;;;4.07;1.73;;;;;;;;;;4836199;29;20133;-74
2022/06/30 14:08:13;;;;;;;3.88;1.65;;;;;;;;;;4832616;29;20050;-73
2022/06/30 14:10:40;;;;;;;1.83;1.63;;;;;;;;;;4836624;29;20098;-73
2022/06/30 14:13:05;;;;;;;2.10;1.45;;;;;;;;;;4822359;29;20034;-73
2022/06/30 14:15:31;;;;;;;8.32;1.70;;;;;;;;;;4836309;29;20041;-74
2022/06/30 14:17:56;;;;;;;3.28;1.70;;;;;;;;;;4837789;29;20723;-73
2022/06/30 14:20:22;;;;;;;2.65;1.80;;;;;;;;;;4838948;29;20391;-77
2022/06/30 14:22:47;;;;;;;2.83;1.80;;;;;;;;;;4836230;29;20090;-76
2022/06/30 14:25:13;;;;;;;1.73;1.63;;;;;;;;;;4836654;29;20097;-74
2022/06/30 14:27:39;;;;;;;4.10;1.73;;;;;;;;;;4836708;29;20033;-74
2022/06/30 14:30:07;;;;;;;2.20;1.80;;;;;;;;;;4837957;29;20042;-73
2022/06/30 14:32:34;;;;;;;3.83;1.92;;;;;;;;;;4837538;29;20045;-75
2022/06/30 14:34:59;;;;;;;4.10;1.90;;;;;;;;;;4843072;29;20091;-74
2022/06/30 14:37:25;;;;;;;3.00;1.88;;;;;;;;;;4837749;29;20859;-74
2022/06/30 14:39:54;;;;;;;2.55;1.70;;;;;;;;;;4838921;29;20061;-76
2022/06/30 14:45:05;;;;;;;2.13;1.92;;;;;;;;;;4843298;29;20137;-73
2022/06/30 14:47:30;;;;;;;5.60;2.30;;;;;;;;;;4838767;29;20121;-76
2022/06/30 14:49:56;;;;;;;2.45;2.15;;;;;;;;;;4835598;29;20034;-75
2022/06/30 14:52:22;;;;;;;2.92;2.05;;;;;;;;;;4838439;29;20404;-77
2022/06/30 14:54:47;;;;;;;2.42;2.22;;;;;;;;;;4840166;29;20041;-76
2022/06/30 14:57:13;;;;;;;3.28;2.10;;;;;;;;;;4838388;29;20022;-76